Time,TemperatureF,DewpointF,PressureIn,WindDirection,WindDirectionDegrees,WindSpeedMPH,WindSpeedGustMPH,Humidity,HourlyPrecipIn,Conditions,Clouds,dailyrainin,SoftwareType,DateUTC
2013-04-08 00:09:00,65.6,60.0,29.90,SSE,167,6.0,-999.0,83,-99.99,,,0.00,weatherlink.com 1.10,2013-04-08 05:09:00,
2013-04-08 00:24:00,65.8,61.0,29.89,SSE,158,4.0,-999.0,83,-99.99,,,0.00,weatherlink.com 1.10,2013-04-08 05:24:00,
2013-04-08 00:39:00,65.5,60.0,29.89,South,171,6.0,-999.0,83,-99.99,,,0.00,weatherlink.com 1.10,2013-04-08 05:39:00,
2013-04-08 00:54:00,65.2,60.0,29.90,South,181,2.0,-999.0,84,-99.99,,,0.00,weatherlink.com 1.10,2013-04-08 05:54:00,
2013-04-08 01:09:00,64.8,60.0,29.89,South,171,6.0,-999.0,85,-99.99,,,0.00,weatherlink.com 1.10,2013-04-08 06:09:00,
2013-04-08 01:24:00,64.5,60.0,29.89,SSE,165,5.0,-999.0,86,-99.99,,,0.00,weatherlink.com 1.10,2013-04-08 06:24:00,
2013-04-08 01:39:00,64.2,60.0,29.89,SSE,158,0.0,-999.0,87,-99.99,,,0.00,weatherlink.com 1.10,2013-04-08 06:39:00,
2013-04-08 01:54:00,63.9,60.0,29.89,SE,143,0.0,-999.0,88,-99.99,,,0.00,weatherlink.com 1.10,2013-04-08 06:54:00,
2013-04-08 02:09:00,63.4,60.0,29.89,SE,143,0.0,-999.0,88,-99.99,,,0.00,weatherlink.com 1.10,2013-04-08 07:09:00,
2013-04-08 02:24:00,63.2,60.0,29.89,South,182,0.0,-999.0,89,-99.99,,,0.00,weatherlink.com 1.10,2013-04-08 07:24:00,
2013-04-08 02:39:00,62.9,60.0,29.88,SSE,150,1.0,-999.0,89,-99.99,,,0.00,weatherlink.com 1.10,2013-04-08 07:39:00,
2013-04-08 02:54:00,62.9,60.0,29.87,SSE,150,3.0,-999.0,90,-99.99,,,0.00,weatherlink.com 1.10,2013-04-08 07:54:00,
2013-04-08 03:09:00,63.2,61.0,29.87,South,172,0.0,-999.0,91,-99.99,,,0.00,weatherlink.com 1.10,2013-04-08 08:09:00,
2013-04-08 03:24:00,63.2,61.0,29.87,South,191,0.0,-999.0,91,-99.99,,,0.00,weatherlink.com 1.10,2013-04-08 08:24:00,
2013-04-08 03:39:00,63.2,61.0,29.86,SE,144,0.0,-999.0,92,-99.99,,,0.00,weatherlink.com 1.10,2013-04-08 08:39:00,
2013-04-08 03:54:00,63.4,61.0,29.86,East,92,0.0,-999.0,92,-99.99,,,0.00,weatherlink.com 1.10,2013-04-08 08:54:00,
2013-04-08 04:09:00,63.4,61.0,29.86,SSE,160,0.0,-999.0,92,-99.99,,,0.00,weatherlink.com 1.10,2013-04-08 09:09:00,
2013-04-08 04:24:00,63.2,61.0,29.86,SE,137,0.0,-999.0,92,-99.99,,,0.00,weatherlink.com 1.10,2013-04-08 09:24:00,
2013-04-08 04:39:00,63.2,61.0,29.86,SSE,167,4.0,-999.0,92,-99.99,,,0.00,weatherlink.com 1.10,2013-04-08 09:39:00,
2013-04-08 05:09:00,63.2,61.0,29.85,SE,145,2.0,-999.0,92,-99.99,,,0.00,weatherlink.com 1.10,2013-04-08 10:09:00,
2013-04-08 05:25:00,63.4,61.0,29.85,SE,131,0.0,-999.0,93,-99.99,,,0.00,weatherlink.com 1.10,2013-04-08 10:25:00,
2013-04-08 05:39:00,63.4,61.0,29.85,SE,144,5.0,-999.0,93,-99.99,,,0.00,weatherlink.com 1.10,2013-04-08 10:39:00,
2013-04-08 05:55:00,63.5,62.0,29.86,SE,133,0.0,-999.0,93,-99.99,,,0.00,weatherlink.com 1.10,2013-04-08 10:55:00,
2013-04-08 06:09:00,63.5,62.0,29.86,SSE,160,4.0,-999.0,93,-99.99,,,0.00,weatherlink.com 1.10,2013-04-08 11:09:00,
2013-04-08 06:24:00,63.7,62.0,29.87,SSE,155,0.0,-999.0,93,-99.99,,,0.00,weatherlink.com 1.10,2013-04-08 11:24:00,
2013-04-08 06:39:00,63.7,62.0,29.87,SSE,155,1.0,-999.0,93,-99.99,,,0.00,weatherlink.com 1.10,2013-04-08 11:39:00,
2013-04-08 06:54:00,63.7,62.0,29.87,SE,130,0.0,-999.0,93,-99.99,,,0.00,weatherlink.com 1.10,2013-04-08 11:54:00,
2013-04-08 07:09:00,64.0,62.0,29.87,SSE,161,0.0,-999.0,93,-99.99,,,0.00,weatherlink.com 1.10,2013-04-08 12:09:00,
2013-04-08 07:24:00,64.2,62.0,29.87,SSE,154,0.0,-999.0,93,-99.99,,,0.00,weatherlink.com 1.10,2013-04-08 12:24:00,
2013-04-08 07:39:00,64.5,63.0,29.87,SSE,157,0.0,-999.0,93,-99.99,,,0.00,weatherlink.com 1.10,2013-04-08 12:39:00,
2013-04-08 07:54:00,64.7,63.0,29.88,SE,136,0.0,-999.0,93,-99.99,,,0.00,weatherlink.com 1.10,2013-04-08 12:54:00,
2013-04-08 08:09:00,65.0,63.0,29.88,South,176,0.0,-999.0,93,-99.99,,,0.00,weatherlink.com 1.10,2013-04-08 13:09:00,
2013-04-08 08:39:00,66.0,64.0,29.88,South,175,2.0,-999.0,93,-99.99,,,0.00,weatherlink.com 1.10,2013-04-08 13:39:00,
2013-04-08 08:54:00,67.3,65.0,29.89,South,171,6.0,-999.0,92,-99.99,,,0.00,weatherlink.com 1.10,2013-04-08 13:54:00,
2013-04-08 09:09:00,68.1,65.0,29.89,SSE,155,10.0,-999.0,89,-99.99,,,0.00,weatherlink.com 1.10,2013-04-08 14:09:00,
2013-04-08 09:24:00,69.1,65.0,29.89,SSE,154,4.0,-999.0,85,-99.99,,,0.00,weatherlink.com 1.10,2013-04-08 14:24:00,
2013-04-08 09:39:00,69.8,64.0,29.89,SE,130,2.0,-999.0,83,-99.99,,,0.00,weatherlink.com 1.10,2013-04-08 14:39:00,
2013-04-08 09:54:00,70.1,64.0,29.89,SSE,158,8.0,-999.0,80,-99.99,,,0.00,weatherlink.com 1.10,2013-04-08 14:54:00,
2013-04-08 10:09:00,72.3,65.0,29.89,South,179,4.0,-999.0,77,-99.99,,,0.00,weatherlink.com 1.10,2013-04-08 15:09:00,
2013-04-08 10:39:00,73.2,62.0,29.89,SW,223,0.0,-999.0,69,-99.99,,,0.00,weatherlink.com 1.10,2013-04-08 15:39:00,
2013-04-08 10:54:00,74.2,63.0,29.89,South,175,5.0,-999.0,67,-99.99,,,0.00,weatherlink.com 1.10,2013-04-08 15:54:00,
2013-04-08 11:09:00,74.9,62.0,29.89,SSE,152,5.0,-999.0,65,-99.99,,,0.00,weatherlink.com 1.10,2013-04-08 16:09:00,
2013-04-08 11:24:00,76.0,63.0,29.89,South,171,6.0,-999.0,64,-99.99,,,0.00,weatherlink.com 1.10,2013-04-08 16:24:00,
2013-04-08 11:39:00,75.8,62.0,29.89,SSW,205,2.0,-999.0,63,-99.99,,,0.00,weatherlink.com 1.10,2013-04-08 16:39:00,
2013-04-08 11:54:00,76.1,63.0,29.89,SSE,165,4.0,-999.0,63,-99.99,,,0.00,weatherlink.com 1.10,2013-04-08 16:54:00,
2013-04-08 12:09:00,76.7,62.0,29.89,SE,143,5.0,-999.0,61,-99.99,,,0.00,weatherlink.com 1.10,2013-04-08 17:09:00,
2013-04-08 12:24:00,78.3,63.0,29.89,SSE,158,4.0,-999.0,60,-99.99,,,0.00,weatherlink.com 1.10,2013-04-08 17:24:00,
2013-04-08 12:39:00,78.6,63.0,29.88,SSE,167,2.0,-999.0,60,-99.99,,,0.00,weatherlink.com 1.10,2013-04-08 17:39:00,
2013-04-08 12:54:00,79.4,62.0,29.87,SE,144,5.0,-999.0,56,-99.99,,,0.00,weatherlink.com 1.10,2013-04-08 17:54:00,
2013-04-08 13:09:00,79.0,63.0,29.87,South,171,3.0,-999.0,58,-99.99,,,0.00,weatherlink.com 1.10,2013-04-08 18:09:00,
2013-04-08 13:25:00,78.6,62.0,29.87,SSE,148,5.0,-999.0,56,-99.99,,,0.00,weatherlink.com 1.10,2013-04-08 18:25:00,
2013-04-08 13:55:00,77.2,62.0,29.85,SSE,162,1.0,-999.0,59,-99.99,,,0.00,weatherlink.com 1.10,2013-04-08 18:55:00,
2013-04-08 14:09:00,78.8,62.0,29.85,South,171,8.0,-999.0,57,-99.99,,,0.00,weatherlink.com 1.10,2013-04-08 19:09:00,
2013-04-08 14:25:00,79.8,62.0,29.84,SSE,148,11.0,-999.0,55,-99.99,,,0.00,weatherlink.com 1.10,2013-04-08 19:25:00,
2013-04-08 14:40:00,78.3,61.0,29.85,South,169,5.0,-999.0,56,-99.99,,,0.00,weatherlink.com 1.10,2013-04-08 19:40:00,
2013-04-08 14:54:00,77.6,62.0,29.84,SSW,198,4.0,-999.0,58,-99.99,,,0.00,weatherlink.com 1.10,2013-04-08 19:54:00,
2013-04-08 15:10:00,77.0,62.0,29.84,SW,215,1.0,-999.0,60,-99.99,,,0.00,weatherlink.com 1.10,2013-04-08 20:10:00,
2013-04-08 15:24:00,77.0,62.0,29.83,SSE,148,6.0,-999.0,61,-99.99,,,0.00,weatherlink.com 1.10,2013-04-08 20:24:00,
2013-04-08 15:40:00,76.8,63.0,29.83,SSW,196,3.0,-999.0,63,-99.99,,,0.00,weatherlink.com 1.10,2013-04-08 20:40:00,
2013-04-08 15:54:00,77.6,63.0,29.82,South,179,7.0,-999.0,61,-99.99,,,0.00,weatherlink.com 1.10,2013-04-08 20:54:00,
2013-04-08 16:10:00,77.7,63.0,29.83,SSE,161,1.0,-999.0,60,-99.99,,,0.00,weatherlink.com 1.10,2013-04-08 21:10:00,
2013-04-08 16:24:00,79.2,63.0,29.82,East,93,5.0,-999.0,57,-99.99,,,0.00,weatherlink.com 1.10,2013-04-08 21:24:00,
2013-04-08 16:39:00,79.2,62.0,29.82,SSE,161,8.0,-999.0,56,-99.99,,,0.00,weatherlink.com 1.10,2013-04-08 21:39:00,
2013-04-08 16:54:00,78.8,62.0,29.82,South,181,5.0,-999.0,56,-99.99,,,0.00,weatherlink.com 1.10,2013-04-08 21:54:00,
2013-04-08 17:09:00,77.9,61.0,29.82,SE,126,3.0,-999.0,57,-99.99,,,0.00,weatherlink.com 1.10,2013-04-08 22:09:00,
2013-04-08 17:24:00,77.6,61.0,29.82,SSW,203,6.0,-999.0,56,-99.99,,,0.00,weatherlink.com 1.10,2013-04-08 22:24:00,
2013-04-08 17:39:00,78.8,61.0,29.81,SE,144,3.0,-999.0,55,-99.99,,,0.00,weatherlink.com 1.10,2013-04-08 22:39:00,
2013-04-08 17:54:00,78.1,61.0,29.80,ESE,119,3.0,-999.0,55,-99.99,,,0.00,weatherlink.com 1.10,2013-04-08 22:54:00,
2013-04-08 18:09:00,76.8,61.0,29.80,SSE,165,2.0,-999.0,58,-99.99,,,0.00,weatherlink.com 1.10,2013-04-08 23:09:00,
2013-04-08 18:24:00,76.5,61.0,29.80,SSE,167,10.0,-999.0,58,-99.99,,,0.00,weatherlink.com 1.10,2013-04-08 23:24:00,
2013-04-08 18:39:00,76.5,61.0,29.80,SSE,162,2.0,-999.0,58,-99.99,,,0.00,weatherlink.com 1.10,2013-04-08 23:39:00,
2013-04-08 18:54:00,75.8,59.0,29.80,South,174,12.0,-999.0,57,-99.99,,,0.00,weatherlink.com 1.10,2013-04-08 23:54:00,
2013-04-08 19:09:00,75.3,60.0,29.81,SSW,198,4.0,-999.0,59,-99.99,,,0.00,weatherlink.com 1.10,2013-04-09 00:09:00,
2013-04-08 19:24:00,74.7,60.0,29.80,South,169,2.0,-999.0,61,-99.99,,,0.00,weatherlink.com 1.10,2013-04-09 00:24:00,
2013-04-08 19:39:00,74.0,61.0,29.81,South,176,0.0,-999.0,63,-99.99,,,0.00,weatherlink.com 1.10,2013-04-09 00:39:00,
2013-04-08 19:54:00,73.3,61.0,29.82,SSE,167,0.0,-999.0,66,-99.99,,,0.00,weatherlink.com 1.10,2013-04-09 00:54:00,
2013-04-08 20:09:00,72.7,62.0,29.82,South,189,6.0,-999.0,69,-99.99,,,0.00,weatherlink.com 1.10,2013-04-09 01:09:00,
2013-04-08 20:24:00,72.1,62.0,29.83,South,176,2.0,-999.0,71,-99.99,,,0.00,weatherlink.com 1.10,2013-04-09 01:24:00,
2013-04-08 20:39:00,71.6,63.0,29.83,SSE,152,8.0,-999.0,73,-99.99,,,0.00,weatherlink.com 1.10,2013-04-09 01:39:00,
2013-04-08 20:54:00,71.3,63.0,29.84,SSE,151,3.0,-999.0,74,-99.99,,,0.00,weatherlink.com 1.10,2013-04-09 01:54:00,
2013-04-08 21:09:00,70.9,63.0,29.84,SSE,161,2.0,-999.0,75,-99.99,,,0.00,weatherlink.com 1.10,2013-04-09 02:09:00,
2013-04-08 21:25:00,70.6,63.0,29.84,SE,137,3.0,-999.0,76,-99.99,,,0.00,weatherlink.com 1.10,2013-04-09 02:25:00,
2013-04-08 21:39:00,70.3,63.0,29.84,SSE,161,1.0,-999.0,77,-99.99,,,0.00,weatherlink.com 1.10,2013-04-09 02:39:00,
2013-04-08 21:55:00,69.9,63.0,29.85,South,169,0.0,-999.0,78,-99.99,,,0.00,weatherlink.com 1.10,2013-04-09 02:55:00,
2013-04-08 22:10:00,69.6,63.0,29.85,South,181,0.0,-999.0,79,-99.99,,,0.00,weatherlink.com 1.10,2013-04-09 03:10:00,
2013-04-08 22:24:00,69.1,63.0,29.85,SE,137,2.0,-999.0,80,-99.99,,,0.00,weatherlink.com 1.10,2013-04-09 03:24:00,
2013-04-08 22:40:00,68.8,63.0,29.85,SSW,203,2.0,-999.0,81,-99.99,,,0.00,weatherlink.com 1.10,2013-04-09 03:40:00,
2013-04-08 22:54:00,68.3,63.0,29.85,SSE,165,0.0,-999.0,82,-99.99,,,0.00,weatherlink.com 1.10,2013-04-09 03:54:00,
2013-04-08 23:10:00,68.1,63.0,29.85,South,171,0.0,-999.0,83,-99.99,,,0.00,weatherlink.com 1.10,2013-04-09 04:10:00,
2013-04-08 23:25:00,67.9,62.0,29.85,SE,131,1.0,-999.0,82,-99.99,,,0.00,weatherlink.com 1.10,2013-04-09 04:25:00,
2013-04-08 23:40:00,67.8,63.0,29.86,SE,140,0.0,-999.0,83,-99.99,,,0.00,weatherlink.com 1.10,2013-04-09 04:40:00,
2013-04-08 23:55:00,67.6,62.0,29.86,SSE,148,3.0,-999.0,83,-99.99,,,0.00,weatherlink.com 1.10,2013-04-09 04:55:00,